sensor_id;sensor_type;location;lat;lon;timestamp;P1;durP1;ratioP1;P2;durP2;ratioP2
33094;SDS011;19459;53.044;8.910;2022-07-22T00:02:15;5.05;;;2.30;;
33094;SDS011;19459;53.044;8.910;2022-07-22T00:04:41;3.38;;;2.85;;
33094;SDS011;19459;53.044;8.910;2022-07-22T00:07:07;6.88;;;2.75;;
33094;SDS011;19459;53.044;8.910;2022-07-22T00:09:32;2.42;;;2.22;;
33094;SDS011;19459;53.044;8.910;2022-07-22T00:11:58;3.88;;;2.75;;
33094;SDS011;19459;53.044;8.910;2022-07-22T00:14:24;9.25;;;3.08;;
33094;SDS011;19459;53.044;8.910;2022-07-22T00:16:50;4.50;;;3.13;;
33094;SDS011;19459;53.044;8.910;2022-07-22T00:19:16;5.85;;;2.55;;
33094;SDS011;19459;53.044;8.910;2022-07-22T00:21:42;3.78;;;3.05;;
33094;SDS011;19459;53.044;8.910;2022-07-22T00:24:08;3.88;;;3.38;;
33094;SDS011;19459;53.044;8.910;2022-07-22T00:26:34;7.53;;;3.80;;
33094;SDS011;19459;53.044;8.910;2022-07-22T00:29:00;7.72;;;4.13;;
33094;SDS011;19459;53.044;8.910;2022-07-22T00:31:25;8.38;;;4.32;;
33094;SDS011;19459;53.044;8.910;2022-07-22T00:33:53;6.03;;;3.97;;
33094;SDS011;19459;53.044;8.910;2022-07-22T00:36:18;4.13;;;3.70;;
33094;SDS011;19459;53.044;8.910;2022-07-22T00:38:44;5.30;;;3.72;;
33094;SDS011;19459;53.044;8.910;2022-07-22T00:41:10;6.60;;;3.47;;
33094;SDS011;19459;53.044;8.910;2022-07-22T00:43:52;3.92;;;3.47;;
33094;SDS011;19459;53.044;8.910;2022-07-22T00:46:27;6.43;;;4.03;;
33094;SDS011;19459;53.044;8.910;2022-07-22T00:48:54;4.50;;;3.92;;
33094;SDS011;19459;53.044;8.910;2022-07-22T00:51:21;6.90;;;4.90;;
33094;SDS011;19459;53.044;8.910;2022-07-22T00:53:48;5.60;;;4.35;;
33094;SDS011;19459;53.044;8.910;2022-07-22T00:56:15;8.70;;;4.82;;
33094;SDS011;19459;53.044;8.910;2022-07-22T00:58:41;7.90;;;6.25;;
33094;SDS011;19459;53.044;8.910;2022-07-22T01:01:08;10.43;;;7.10;;
33094;SDS011;19459;53.044;8.910;2022-07-22T01:03:34;11.20;;;7.70;;
33094;SDS011;19459;53.044;8.910;2022-07-22T01:06:01;15.85;;;6.85;;
33094;SDS011;19459;53.044;8.910;2022-07-22T01:08:27;20.20;;;7.30;;
33094;SDS011;19459;53.044;8.910;2022-07-22T01:10:53;9.40;;;5.95;;
33094;SDS011;19459;53.044;8.910;2022-07-22T01:13:19;18.33;;;6.68;;
33094;SDS011;19459;53.044;8.910;2022-07-22T01:15:45;7.57;;;4.50;;
33094;SDS011;19459;53.044;8.910;2022-07-22T01:18:10;8.80;;;3.40;;
33094;SDS011;19459;53.044;8.910;2022-07-22T01:20:36;8.20;;;3.88;;
33094;SDS011;19459;53.044;8.910;2022-07-22T01:23:02;10.38;;;4.55;;
33094;SDS011;19459;53.044;8.910;2022-07-22T01:25:28;9.50;;;3.70;;
33094;SDS011;19459;53.044;8.910;2022-07-22T01:27:54;11.90;;;4.07;;
33094;SDS011;19459;53.044;8.910;2022-07-22T01:30:20;7.25;;;3.63;;
33094;SDS011;19459;53.044;8.910;2022-07-22T01:32:46;14.50;;;4.30;;
33094;SDS011;19459;53.044;8.910;2022-07-22T01:35:11;11.35;;;4.32;;
33094;SDS011;19459;53.044;8.910;2022-07-22T01:37:37;8.55;;;3.60;;
33094;SDS011;19459;53.044;8.910;2022-07-22T01:40:04;10.23;;;4.93;;
33094;SDS011;19459;53.044;8.910;2022-07-22T01:42:30;16.98;;;9.07;;
33094;SDS011;19459;53.044;8.910;2022-07-22T01:44:56;15.68;;;9.05;;
33094;SDS011;19459;53.044;8.910;2022-07-22T01:47:22;15.60;;;8.52;;
33094;SDS011;19459;53.044;8.910;2022-07-22T01:49:48;17.88;;;8.52;;
33094;SDS011;19459;53.044;8.910;2022-07-22T01:52:13;17.13;;;8.10;;
33094;SDS011;19459;53.044;8.910;2022-07-22T01:54:39;13.88;;;7.18;;
33094;SDS011;19459;53.044;8.910;2022-07-22T01:57:05;13.23;;;8.05;;
33094;SDS011;19459;53.044;8.910;2022-07-22T01:59:30;13.05;;;7.45;;
33094;SDS011;19459;53.044;8.910;2022-07-22T02:01:56;17.55;;;7.72;;
33094;SDS011;19459;53.044;8.910;2022-07-22T02:04:22;15.88;;;6.68;;
33094;SDS011;19459;53.044;8.910;2022-07-22T02:06:48;11.80;;;6.30;;
33094;SDS011;19459;53.044;8.910;2022-07-22T02:09:13;14.05;;;6.63;;
33094;SDS011;19459;53.044;8.910;2022-07-22T02:11:39;15.77;;;7.35;;
33094;SDS011;19459;53.044;8.910;2022-07-22T02:14:05;14.23;;;6.57;;
33094;SDS011;19459;53.044;8.910;2022-07-22T02:16:31;14.27;;;7.85;;
33094;SDS011;19459;53.044;8.910;2022-07-22T02:18:56;14.80;;;7.72;;
33094;SDS011;19459;53.044;8.910;2022-07-22T02:21:22;15.52;;;8.50;;
33094;SDS011;19459;53.044;8.910;2022-07-22T02:23:49;13.85;;;7.68;;
33094;SDS011;19459;53.044;8.910;2022-07-22T02:26:14;13.98;;;8.32;;
33094;SDS011;19459;53.044;8.910;2022-07-22T02:28:41;13.07;;;7.40;;
33094;SDS011;19459;53.044;8.910;2022-07-22T02:31:06;12.13;;;7.60;;
33094;SDS011;19459;53.044;8.910;2022-07-22T02:33:32;19.40;;;7.95;;
33094;SDS011;19459;53.044;8.910;2022-07-22T02:35:58;15.80;;;8.02;;
33094;SDS011;19459;53.044;8.910;2022-07-22T02:38:24;14.82;;;7.18;;
33094;SDS011;19459;53.044;8.910;2022-07-22T02:40:49;16.23;;;7.85;;
33094;SDS011;19459;53.044;8.910;2022-07-22T02:43:15;16.23;;;8.40;;
33094;SDS011;19459;53.044;8.910;2022-07-22T02:45:41;12.57;;;7.65;;
33094;SDS011;19459;53.044;8.910;2022-07-22T02:48:06;13.85;;;8.63;;
33094;SDS011;19459;53.044;8.910;2022-07-22T02:50:32;14.20;;;7.50;;
33094;SDS011;19459;53.044;8.910;2022-07-22T02:52:58;10.68;;;7.35;;
33094;SDS011;19459;53.044;8.910;2022-07-22T02:55:24;11.27;;;8.25;;
33094;SDS011;19459;53.044;8.910;2022-07-22T02:57:50;16.65;;;7.30;;
33094;SDS011;19459;53.044;8.910;2022-07-22T03:00:16;16.23;;;7.57;;
33094;SDS011;19459;53.044;8.910;2022-07-22T03:02:42;11.93;;;7.32;;
33094;SDS011;19459;53.044;8.910;2022-07-22T03:05:08;8.75;;;6.60;;
33094;SDS011;19459;53.044;8.910;2022-07-22T03:07:34;14.23;;;7.75;;
33094;SDS011;19459;53.044;8.910;2022-07-22T03:10:00;10.75;;;5.95;;
33094;SDS011;19459;53.044;8.910;2022-07-22T03:12:27;12.63;;;7.05;;
33094;SDS011;19459;53.044;8.910;2022-07-22T03:14:53;12.98;;;6.25;;
33094;SDS011;19459;53.044;8.910;2022-07-22T03:17:18;15.65;;;6.68;;
33094;SDS011;19459;53.044;8.910;2022-07-22T03:19:44;13.07;;;6.60;;
33094;SDS011;19459;53.044;8.910;2022-07-22T03:22:10;9.52;;;5.53;;
33094;SDS011;19459;53.044;8.910;2022-07-22T03:24:35;14.45;;;7.65;;
33094;SDS011;19459;53.044;8.910;2022-07-22T03:27:01;17.77;;;9.05;;
33094;SDS011;19459;53.044;8.910;2022-07-22T03:29:27;23.65;;;10.23;;
33094;SDS011;19459;53.044;8.910;2022-07-22T03:31:53;16.17;;;8.65;;
33094;SDS011;19459;53.044;8.910;2022-07-22T03:34:18;16.38;;;8.30;;
33094;SDS011;19459;53.044;8.910;2022-07-22T03:36:44;15.65;;;7.15;;
33094;SDS011;19459;53.044;8.910;2022-07-22T03:39:10;13.73;;;7.15;;
33094;SDS011;19459;53.044;8.910;2022-07-22T03:41:35;12.43;;;5.90;;
33094;SDS011;19459;53.044;8.910;2022-07-22T03:44:01;14.45;;;5.68;;
33094;SDS011;19459;53.044;8.910;2022-07-22T03:46:27;16.02;;;5.90;;
33094;SDS011;19459;53.044;8.910;2022-07-22T03:48:53;13.90;;;5.57;;
33094;SDS011;19459;53.044;8.910;2022-07-22T03:51:18;13.55;;;5.00;;
33094;SDS011;19459;53.044;8.910;2022-07-22T03:53:44;13.07;;;5.22;;
33094;SDS011;19459;53.044;8.910;2022-07-22T03:56:10;10.45;;;5.63;;
33094;SDS011;19459;53.044;8.910;2022-07-22T03:58:36;14.20;;;5.55;;
33094;SDS011;19459;53.044;8.910;2022-07-22T04:01:02;16.42;;;4.80;;
33094;SDS011;19459;53.044;8.910;2022-07-22T04:03:28;11.82;;;3.90;;
33094;SDS011;19459;53.044;8.910;2022-07-22T04:05:53;10.30;;;3.67;;
33094;SDS011;19459;53.044;8.910;2022-07-22T04:08:19;11.38;;;3.83;;
33094;SDS011;19459;53.044;8.910;2022-07-22T04:10:45;10.45;;;4.30;;
33094;SDS011;19459;53.044;8.910;2022-07-22T04:13:11;10.23;;;4.35;;
33094;SDS011;19459;53.044;8.910;2022-07-22T04:15:37;12.27;;;5.40;;
33094;SDS011;19459;53.044;8.910;2022-07-22T04:18:02;10.07;;;4.45;;
33094;SDS011;19459;53.044;8.910;2022-07-22T04:20:28;9.68;;;4.15;;
33094;SDS011;19459;53.044;8.910;2022-07-22T04:22:54;12.27;;;5.78;;
33094;SDS011;19459;53.044;8.910;2022-07-22T04:25:20;11.73;;;4.45;;
33094;SDS011;19459;53.044;8.910;2022-07-22T04:27:46;16.70;;;5.85;;
33094;SDS011;19459;53.044;8.910;2022-07-22T04:30:11;15.98;;;6.05;;
33094;SDS011;19459;53.044;8.910;2022-07-22T04:32:37;15.32;;;5.63;;
33094;SDS011;19459;53.044;8.910;2022-07-22T04:35:03;14.25;;;6.03;;
33094;SDS011;19459;53.044;8.910;2022-07-22T04:37:30;16.23;;;6.28;;
33094;SDS011;19459;53.044;8.910;2022-07-22T04:39:56;21.27;;;6.47;;
33094;SDS011;19459;53.044;8.910;2022-07-22T04:42:22;18.02;;;5.85;;
33094;SDS011;19459;53.044;8.910;2022-07-22T04:44:47;23.13;;;6.80;;
33094;SDS011;19459;53.044;8.910;2022-07-22T04:47:13;13.75;;;5.57;;
33094;SDS011;19459;53.044;8.910;2022-07-22T04:49:39;14.52;;;5.40;;
33094;SDS011;19459;53.044;8.910;2022-07-22T04:52:04;18.77;;;4.85;;
33094;SDS011;19459;53.044;8.910;2022-07-22T04:54:31;16.27;;;4.45;;
33094;SDS011;19459;53.044;8.910;2022-07-22T04:56:56;12.27;;;4.60;;
33094;SDS011;19459;53.044;8.910;2022-07-22T04:59:22;10.32;;;4.10;;
33094;SDS011;19459;53.044;8.910;2022-07-22T05:01:48;15.20;;;5.15;;
33094;SDS011;19459;53.044;8.910;2022-07-22T05:04:14;12.30;;;3.50;;
33094;SDS011;19459;53.044;8.910;2022-07-22T05:06:40;16.27;;;4.53;;
33094;SDS011;19459;53.044;8.910;2022-07-22T05:09:06;13.88;;;3.75;;
33094;SDS011;19459;53.044;8.910;2022-07-22T05:11:32;24.30;;;5.00;;
33094;SDS011;19459;53.044;8.910;2022-07-22T05:13:57;16.02;;;5.03;;
33094;SDS011;19459;53.044;8.910;2022-07-22T05:16:23;12.75;;;5.07;;
33094;SDS011;19459;53.044;8.910;2022-07-22T05:18:49;15.25;;;5.18;;
33094;SDS011;19459;53.044;8.910;2022-07-22T05:21:15;12.43;;;4.90;;
33094;SDS011;19459;53.044;8.910;2022-07-22T05:23:41;13.30;;;6.00;;
33094;SDS011;19459;53.044;8.910;2022-07-22T05:26:07;20.13;;;6.93;;
33094;SDS011;19459;53.044;8.910;2022-07-22T05:28:34;18.40;;;6.18;;
33094;SDS011;19459;53.044;8.910;2022-07-22T05:31:00;12.88;;;6.10;;
33094;SDS011;19459;53.044;8.910;2022-07-22T05:33:26;23.55;;;7.80;;
33094;SDS011;19459;53.044;8.910;2022-07-22T05:35:52;18.90;;;6.28;;
33094;SDS011;19459;53.044;8.910;2022-07-22T05:38:18;17.13;;;6.85;;
33094;SDS011;19459;53.044;8.910;2022-07-22T05:40:44;15.82;;;7.05;;
33094;SDS011;19459;53.044;8.910;2022-07-22T05:43:09;19.65;;;7.03;;
33094;SDS011;19459;53.044;8.910;2022-07-22T05:45:35;19.88;;;7.50;;
33094;SDS011;19459;53.044;8.910;2022-07-22T05:48:01;13.30;;;5.72;;
33094;SDS011;19459;53.044;8.910;2022-07-22T05:50:27;19.00;;;6.20;;
33094;SDS011;19459;53.044;8.910;2022-07-22T05:52:53;13.65;;;5.90;;
33094;SDS011;19459;53.044;8.910;2022-07-22T05:55:18;12.80;;;4.43;;
33094;SDS011;19459;53.044;8.910;2022-07-22T05:57:44;12.60;;;5.10;;
33094;SDS011;19459;53.044;8.910;2022-07-22T06:00:10;14.63;;;4.40;;
33094;SDS011;19459;53.044;8.910;2022-07-22T06:02:36;11.93;;;4.90;;
33094;SDS011;19459;53.044;8.910;2022-07-22T06:05:02;10.45;;;3.65;;
33094;SDS011;19459;53.044;8.910;2022-07-22T06:07:28;14.25;;;4.38;;
33094;SDS011;19459;53.044;8.910;2022-07-22T06:09:54;13.85;;;3.72;;
33094;SDS011;19459;53.044;8.910;2022-07-22T06:12:20;11.20;;;3.92;;
33094;SDS011;19459;53.044;8.910;2022-07-22T06:14:46;13.80;;;3.55;;
33094;SDS011;19459;53.044;8.910;2022-07-22T06:17:12;12.73;;;3.55;;
33094;SDS011;19459;53.044;8.910;2022-07-22T06:19:38;15.80;;;4.10;;
33094;SDS011;19459;53.044;8.910;2022-07-22T06:22:04;10.25;;;3.40;;
33094;SDS011;19459;53.044;8.910;2022-07-22T06:24:30;14.13;;;3.60;;
33094;SDS011;19459;53.044;8.910;2022-07-22T06:26:56;11.68;;;3.33;;
33094;SDS011;19459;53.044;8.910;2022-07-22T06:29:22;12.77;;;3.17;;
33094;SDS011;19459;53.044;8.910;2022-07-22T06:31:48;10.60;;;3.22;;
33094;SDS011;19459;53.044;8.910;2022-07-22T06:34:13;7.95;;;3.25;;
33094;SDS011;19459;53.044;8.910;2022-07-22T06:36:39;12.82;;;3.75;;
33094;SDS011;19459;53.044;8.910;2022-07-22T06:39:05;14.77;;;3.40;;
33094;SDS011;19459;53.044;8.910;2022-07-22T06:41:31;9.73;;;3.38;;
33094;SDS011;19459;53.044;8.910;2022-07-22T06:43:56;9.50;;;2.72;;
33094;SDS011;19459;53.044;8.910;2022-07-22T06:46:22;15.07;;;3.67;;
33094;SDS011;19459;53.044;8.910;2022-07-22T06:48:48;9.43;;;3.08;;
33094;SDS011;19459;53.044;8.910;2022-07-22T06:51:14;7.60;;;2.65;;
33094;SDS011;19459;53.044;8.910;2022-07-22T06:53:40;10.85;;;3.40;;
33094;SDS011;19459;53.044;8.910;2022-07-22T06:56:07;7.90;;;2.28;;
33094;SDS011;19459;53.044;8.910;2022-07-22T06:58:32;9.43;;;2.40;;
33094;SDS011;19459;53.044;8.910;2022-07-22T07:00:59;14.40;;;3.05;;
33094;SDS011;19459;53.044;8.910;2022-07-22T07:03:24;12.95;;;3.40;;
33094;SDS011;19459;53.044;8.910;2022-07-22T07:05:51;9.40;;;2.72;;
33094;SDS011;19459;53.044;8.910;2022-07-22T07:08:20;8.98;;;3.03;;
33094;SDS011;19459;53.044;8.910;2022-07-22T07:10:46;9.88;;;3.33;;
33094;SDS011;19459;53.044;8.910;2022-07-22T07:13:13;8.55;;;2.53;;
33094;SDS011;19459;53.044;8.910;2022-07-22T07:15:39;11.82;;;3.17;;
33094;SDS011;19459;53.044;8.910;2022-07-22T07:18:04;12.48;;;3.53;;
33094;SDS011;19459;53.044;8.910;2022-07-22T07:20:30;9.27;;;2.75;;
33094;SDS011;19459;53.044;8.910;2022-07-22T07:22:59;14.18;;;2.97;;
33094;SDS011;19459;53.044;8.910;2022-07-22T07:25:26;11.25;;;3.65;;
33094;SDS011;19459;53.044;8.910;2022-07-22T07:27:51;6.00;;;3.45;;
33094;SDS011;19459;53.044;8.910;2022-07-22T07:30:17;9.32;;;3.45;;
33094;SDS011;19459;53.044;8.910;2022-07-22T07:32:43;8.23;;;2.72;;
33094;SDS011;19459;53.044;8.910;2022-07-22T07:35:09;12.60;;;3.28;;
33094;SDS011;19459;53.044;8.910;2022-07-22T07:37:35;8.07;;;3.17;;
33094;SDS011;19459;53.044;8.910;2022-07-22T07:40:02;9.73;;;2.60;;
33094;SDS011;19459;53.044;8.910;2022-07-22T07:42:29;8.85;;;3.63;;
33094;SDS011;19459;53.044;8.910;2022-07-22T07:44:55;7.95;;;2.90;;
33094;SDS011;19459;53.044;8.910;2022-07-22T07:47:22;8.73;;;3.63;;
33094;SDS011;19459;53.044;8.910;2022-07-22T07:49:48;11.00;;;3.05;;
33094;SDS011;19459;53.044;8.910;2022-07-22T07:52:14;5.07;;;2.53;;
33094;SDS011;19459;53.044;8.910;2022-07-22T07:54:41;7.85;;;2.78;;
33094;SDS011;19459;53.044;8.910;2022-07-22T07:57:08;8.85;;;3.05;;
33094;SDS011;19459;53.044;8.910;2022-07-22T07:59:38;8.13;;;2.75;;
33094;SDS011;19459;53.044;8.910;2022-07-22T08:02:04;10.50;;;2.83;;
33094;SDS011;19459;53.044;8.910;2022-07-22T08:04:31;15.73;;;2.47;;
33094;SDS011;19459;53.044;8.910;2022-07-22T08:06:57;11.68;;;2.92;;
33094;SDS011;19459;53.044;8.910;2022-07-22T08:09:23;12.90;;;2.78;;
33094;SDS011;19459;53.044;8.910;2022-07-22T08:11:49;14.93;;;3.35;;
33094;SDS011;19459;53.044;8.910;2022-07-22T08:14:15;10.98;;;2.80;;
33094;SDS011;19459;53.044;8.910;2022-07-22T08:16:41;10.07;;;2.50;;
33094;SDS011;19459;53.044;8.910;2022-07-22T08:19:07;10.32;;;3.15;;
33094;SDS011;19459;53.044;8.910;2022-07-22T08:21:33;13.48;;;3.17;;
33094;SDS011;19459;53.044;8.910;2022-07-22T08:23:59;10.50;;;2.78;;
33094;SDS011;19459;53.044;8.910;2022-07-22T08:26:26;10.93;;;2.85;;
33094;SDS011;19459;53.044;8.910;2022-07-22T08:28:52;11.30;;;2.63;;
33094;SDS011;19459;53.044;8.910;2022-07-22T08:31:18;6.68;;;2.42;;
33094;SDS011;19459;53.044;8.910;2022-07-22T08:33:44;7.95;;;2.47;;
33094;SDS011;19459;53.044;8.910;2022-07-22T08:36:09;9.32;;;2.50;;
33094;SDS011;19459;53.044;8.910;2022-07-22T08:38:35;5.45;;;2.13;;
33094;SDS011;19459;53.044;8.910;2022-07-22T08:41:02;9.60;;;2.05;;
33094;SDS011;19459;53.044;8.910;2022-07-22T08:43:29;8.98;;;2.13;;
33094;SDS011;19459;53.044;8.910;2022-07-22T08:45:56;6.93;;;2.58;;
33094;SDS011;19459;53.044;8.910;2022-07-22T08:48:23;88.63;;;27.05;;
33094;SDS011;19459;53.044;8.910;2022-07-22T08:50:49;65.93;;;22.63;;
33094;SDS011;19459;53.044;8.910;2022-07-22T08:53:15;25.75;;;8.00;;
33094;SDS011;19459;53.044;8.910;2022-07-22T08:55:41;13.18;;;3.05;;
33094;SDS011;19459;53.044;8.910;2022-07-22T08:58:09;7.30;;;1.65;;
33094;SDS011;19459;53.044;8.910;2022-07-22T09:00:36;8.07;;;2.10;;
33094;SDS011;19459;53.044;8.910;2022-07-22T09:03:15;12.98;;;2.70;;
33094;SDS011;19459;53.044;8.910;2022-07-22T09:05:50;8.07;;;2.47;;
33094;SDS011;19459;53.044;8.910;2022-07-22T09:08:17;9.88;;;2.80;;
33094;SDS011;19459;53.044;8.910;2022-07-22T09:10:44;13.15;;;3.35;;
33094;SDS011;19459;53.044;8.910;2022-07-22T09:13:10;9.55;;;3.00;;
33094;SDS011;19459;53.044;8.910;2022-07-22T09:15:37;5.97;;;2.80;;
33094;SDS011;19459;53.044;8.910;2022-07-22T09:18:10;9.23;;;2.30;;
33094;SDS011;19459;53.044;8.910;2022-07-22T09:20:37;7.05;;;2.13;;
33094;SDS011;19459;53.044;8.910;2022-07-22T09:23:39;8.10;;;2.10;;
33094;SDS011;19459;53.044;8.910;2022-07-22T09:26:04;4.65;;;2.10;;
33094;SDS011;19459;53.044;8.910;2022-07-22T09:28:30;9.45;;;2.10;;
33094;SDS011;19459;53.044;8.910;2022-07-22T09:30:55;8.25;;;2.38;;
33094;SDS011;19459;53.044;8.910;2022-07-22T09:33:21;6.28;;;2.17;;
33094;SDS011;19459;53.044;8.910;2022-07-22T09:35:48;7.78;;;2.22;;
33094;SDS011;19459;53.044;8.910;2022-07-22T09:38:15;8.98;;;2.45;;
33094;SDS011;19459;53.044;8.910;2022-07-22T09:40:45;8.55;;;2.30;;
33094;SDS011;19459;53.044;8.910;2022-07-22T09:43:16;7.38;;;2.17;;
33094;SDS011;19459;53.044;8.910;2022-07-22T09:45:48;7.35;;;2.70;;
33094;SDS011;19459;53.044;8.910;2022-07-22T09:48:17;9.80;;;2.08;;
33094;SDS011;19459;53.044;8.910;2022-07-22T09:50:46;8.85;;;2.40;;
33094;SDS011;19459;53.044;8.910;2022-07-22T09:53:13;6.57;;;2.50;;
33094;SDS011;19459;53.044;8.910;2022-07-22T09:55:41;10.88;;;2.47;;
33094;SDS011;19459;53.044;8.910;2022-07-22T09:58:07;5.90;;;2.20;;
33094;SDS011;19459;53.044;8.910;2022-07-22T10:00:34;6.75;;;2.28;;
33094;SDS011;19459;53.044;8.910;2022-07-22T10:03:02;16.85;;;2.97;;
33094;SDS011;19459;53.044;8.910;2022-07-22T10:05:32;6.20;;;2.22;;
33094;SDS011;19459;53.044;8.910;2022-07-22T10:08:02;6.15;;;1.92;;
33094;SDS011;19459;53.044;8.910;2022-07-22T10:10:30;10.68;;;2.58;;
33094;SDS011;19459;53.044;8.910;2022-07-22T10:12:59;6.25;;;2.28;;
33094;SDS011;19459;53.044;8.910;2022-07-22T10:15:27;23.13;;;2.55;;
33094;SDS011;19459;53.044;8.910;2022-07-22T10:17:56;6.97;;;2.42;;
33094;SDS011;19459;53.044;8.910;2022-07-22T10:20:28;5.53;;;2.10;;
33094;SDS011;19459;53.044;8.910;2022-07-22T10:25:33;9.73;;;2.05;;
33094;SDS011;19459;53.044;8.910;2022-07-22T10:28:26;6.55;;;2.92;;
33094;SDS011;19459;53.044;8.910;2022-07-22T10:33:39;7.05;;;2.20;;
33094;SDS011;19459;53.044;8.910;2022-07-22T10:36:05;7.22;;;2.25;;
33094;SDS011;19459;53.044;8.910;2022-07-22T10:38:33;18.60;;;4.15;;
33094;SDS011;19459;53.044;8.910;2022-07-22T10:41:00;10.77;;;2.67;;
33094;SDS011;19459;53.044;8.910;2022-07-22T10:46:06;7.07;;;2.63;;
33094;SDS011;19459;53.044;8.910;2022-07-22T10:53:58;7.25;;;2.20;;
33094;SDS011;19459;53.044;8.910;2022-07-22T10:56:34;8.80;;;2.28;;
33094;SDS011;19459;53.044;8.910;2022-07-22T10:59:09;7.10;;;2.35;;
33094;SDS011;19459;53.044;8.910;2022-07-22T11:01:45;5.85;;;1.95;;
33094;SDS011;19459;53.044;8.910;2022-07-22T11:06:45;4.15;;;2.05;;
33094;SDS011;19459;53.044;8.910;2022-07-22T11:09:13;13.98;;;3.05;;
33094;SDS011;19459;53.044;8.910;2022-07-22T11:11:52;6.57;;;2.47;;
33094;SDS011;19459;53.044;8.910;2022-07-22T11:17:00;4.85;;;2.45;;
33094;SDS011;19459;53.044;8.910;2022-07-22T11:19:34;6.00;;;2.33;;
33094;SDS011;19459;53.044;8.910;2022-07-22T11:22:05;7.50;;;2.40;;
33094;SDS011;19459;53.044;8.910;2022-07-22T11:24:33;11.32;;;3.05;;
33094;SDS011;19459;53.044;8.910;2022-07-22T11:27:00;7.00;;;2.38;;
33094;SDS011;19459;53.044;8.910;2022-07-22T11:29:28;9.98;;;2.22;;
33094;SDS011;19459;53.044;8.910;2022-07-22T11:31:58;8.98;;;2.53;;
33094;SDS011;19459;53.044;8.910;2022-07-22T11:34:26;5.10;;;2.30;;
33094;SDS011;19459;53.044;8.910;2022-07-22T11:36:53;10.25;;;2.75;;
33094;SDS011;19459;53.044;8.910;2022-07-22T11:39:21;10.80;;;2.45;;
33094;SDS011;19459;53.044;8.910;2022-07-22T11:41:54;8.00;;;2.65;;
33094;SDS011;19459;53.044;8.910;2022-07-22T11:44:23;5.63;;;2.70;;
33094;SDS011;19459;53.044;8.910;2022-07-22T11:46:52;7.72;;;2.28;;
33094;SDS011;19459;53.044;8.910;2022-07-22T11:49:19;11.43;;;3.65;;
33094;SDS011;19459;53.044;8.910;2022-07-22T11:51:47;5.15;;;2.25;;
33094;SDS011;19459;53.044;8.910;2022-07-22T11:54:13;12.77;;;2.20;;
33094;SDS011;19459;53.044;8.910;2022-07-22T11:56:39;12.50;;;2.95;;
33094;SDS011;19459;53.044;8.910;2022-07-22T11:59:06;4.70;;;2.00;;
33094;SDS011;19459;53.044;8.910;2022-07-22T12:01:36;8.93;;;2.53;;
33094;SDS011;19459;53.044;8.910;2022-07-22T12:04:06;6.10;;;2.20;;
33094;SDS011;19459;53.044;8.910;2022-07-22T12:06:35;6.30;;;2.85;;
33094;SDS011;19459;53.044;8.910;2022-07-22T12:09:06;7.60;;;2.30;;
33094;SDS011;19459;53.044;8.910;2022-07-22T12:11:54;5.38;;;2.20;;
33094;SDS011;19459;53.044;8.910;2022-07-22T12:14:25;8.02;;;2.92;;
33094;SDS011;19459;53.044;8.910;2022-07-22T12:19:26;6.30;;;3.15;;
33094;SDS011;19459;53.044;8.910;2022-07-22T12:21:58;9.90;;;2.92;;
33094;SDS011;19459;53.044;8.910;2022-07-22T12:27:14;9.07;;;2.45;;
33094;SDS011;19459;53.044;8.910;2022-07-22T12:29:43;4.50;;;2.53;;
33094;SDS011;19459;53.044;8.910;2022-07-22T12:37:20;10.82;;;2.53;;
33094;SDS011;19459;53.044;8.910;2022-07-22T12:42:33;7.18;;;2.20;;
33094;SDS011;19459;53.044;8.910;2022-07-22T12:45:23;6.45;;;2.13;;
33094;SDS011;19459;53.044;8.910;2022-07-22T12:47:55;8.77;;;2.40;;
33094;SDS011;19459;53.044;8.910;2022-07-22T12:50:32;9.23;;;2.30;;
33094;SDS011;19459;53.044;8.910;2022-07-22T12:53:05;7.05;;;2.35;;
33094;SDS011;19459;53.044;8.910;2022-07-22T12:55:40;10.13;;;3.10;;
33094;SDS011;19459;53.044;8.910;2022-07-22T12:58:28;9.73;;;2.55;;
33094;SDS011;19459;53.044;8.910;2022-07-22T13:00:57;5.95;;;2.63;;
33094;SDS011;19459;53.044;8.910;2022-07-22T13:03:26;9.43;;;2.60;;
33094;SDS011;19459;53.044;8.910;2022-07-22T13:05:56;5.70;;;2.90;;
33094;SDS011;19459;53.044;8.910;2022-07-22T13:08:24;7.50;;;2.92;;
33094;SDS011;19459;53.044;8.910;2022-07-22T13:10:51;10.15;;;2.80;;
33094;SDS011;19459;53.044;8.910;2022-07-22T13:13:19;7.63;;;2.70;;
33094;SDS011;19459;53.044;8.910;2022-07-22T13:15:46;10.88;;;3.38;;
33094;SDS011;19459;53.044;8.910;2022-07-22T13:18:12;10.07;;;2.65;;
33094;SDS011;19459;53.044;8.910;2022-07-22T13:20:38;11.52;;;2.70;;
33094;SDS011;19459;53.044;8.910;2022-07-22T13:23:04;7.18;;;2.70;;
33094;SDS011;19459;53.044;8.910;2022-07-22T13:25:30;9.25;;;3.08;;
33094;SDS011;19459;53.044;8.910;2022-07-22T13:27:57;10.77;;;3.92;;
33094;SDS011;19459;53.044;8.910;2022-07-22T13:30:23;4.82;;;2.13;;
33094;SDS011;19459;53.044;8.910;2022-07-22T13:32:50;7.03;;;2.75;;
33094;SDS011;19459;53.044;8.910;2022-07-22T13:35:16;7.82;;;2.22;;
33094;SDS011;19459;53.044;8.910;2022-07-22T13:37:45;7.25;;;2.58;;
33094;SDS011;19459;53.044;8.910;2022-07-22T13:40:11;7.93;;;3.05;;
33094;SDS011;19459;53.044;8.910;2022-07-22T13:42:38;5.57;;;2.47;;
33094;SDS011;19459;53.044;8.910;2022-07-22T13:45:05;6.05;;;2.08;;
33094;SDS011;19459;53.044;8.910;2022-07-22T13:47:31;6.18;;;2.30;;
33094;SDS011;19459;53.044;8.910;2022-07-22T13:49:57;7.03;;;2.75;;
33094;SDS011;19459;53.044;8.910;2022-07-22T13:52:23;6.50;;;2.22;;
33094;SDS011;19459;53.044;8.910;2022-07-22T13:54:49;6.30;;;2.13;;
33094;SDS011;19459;53.044;8.910;2022-07-22T13:57:16;9.70;;;3.15;;
33094;SDS011;19459;53.044;8.910;2022-07-22T13:59:41;4.28;;;1.92;;
33094;SDS011;19459;53.044;8.910;2022-07-22T14:02:07;3.35;;;2.20;;
33094;SDS011;19459;53.044;8.910;2022-07-22T14:04:34;7.00;;;2.47;;
33094;SDS011;19459;53.044;8.910;2022-07-22T14:06:59;6.20;;;2.03;;
33094;SDS011;19459;53.044;8.910;2022-07-22T14:09:25;7.80;;;2.83;;
33094;SDS011;19459;53.044;8.910;2022-07-22T14:11:51;6.82;;;2.28;;
33094;SDS011;19459;53.044;8.910;2022-07-22T14:14:17;4.15;;;2.22;;
33094;SDS011;19459;53.044;8.910;2022-07-22T14:16:42;5.53;;;1.95;;
33094;SDS011;19459;53.044;8.910;2022-07-22T14:19:12;11.88;;;2.60;;
33094;SDS011;19459;53.044;8.910;2022-07-22T14:21:41;4.97;;;1.80;;
33094;SDS011;19459;53.044;8.910;2022-07-22T14:24:09;9.05;;;2.22;;
33094;SDS011;19459;53.044;8.910;2022-07-22T14:26:36;5.47;;;2.20;;
33094;SDS011;19459;53.044;8.910;2022-07-22T14:29:03;7.40;;;1.98;;
33094;SDS011;19459;53.044;8.910;2022-07-22T14:31:31;5.72;;;2.10;;
33094;SDS011;19459;53.044;8.910;2022-07-22T14:33:57;9.15;;;2.45;;
33094;SDS011;19459;53.044;8.910;2022-07-22T14:36:23;8.07;;;2.47;;
33094;SDS011;19459;53.044;8.910;2022-07-22T14:38:50;5.13;;;2.30;;
33094;SDS011;19459;53.044;8.910;2022-07-22T14:41:18;9.15;;;2.60;;
33094;SDS011;19459;53.044;8.910;2022-07-22T14:43:44;6.55;;;1.80;;
33094;SDS011;19459;53.044;8.910;2022-07-22T14:46:10;6.53;;;2.10;;
33094;SDS011;19459;53.044;8.910;2022-07-22T14:48:37;8.30;;;2.58;;
33094;SDS011;19459;53.044;8.910;2022-07-22T14:51:04;8.98;;;2.75;;
33094;SDS011;19459;53.044;8.910;2022-07-22T14:53:30;9.10;;;3.13;;
33094;SDS011;19459;53.044;8.910;2022-07-22T14:55:56;8.07;;;2.65;;
33094;SDS011;19459;53.044;8.910;2022-07-22T14:58:23;8.90;;;2.53;;
33094;SDS011;19459;53.044;8.910;2022-07-22T15:00:50;6.07;;;1.90;;
33094;SDS011;19459;53.044;8.910;2022-07-22T15:03:16;5.20;;;2.20;;
33094;SDS011;19459;53.044;8.910;2022-07-22T15:05:42;5.93;;;2.92;;
33094;SDS011;19459;53.044;8.910;2022-07-22T15:08:08;7.72;;;2.63;;
33094;SDS011;19459;53.044;8.910;2022-07-22T15:10:34;6.93;;;2.53;;
33094;SDS011;19459;53.044;8.910;2022-07-22T15:13:00;11.38;;;2.22;;